createdAt,value
2018-08-04T00:00:08.659Z,49.53
2018-08-04T00:02:36.483Z,49.67
2018-08-04T00:05:04.566Z,49.87
2018-08-04T00:07:33.689Z,50.03
2018-08-04T00:10:02.048Z,49.89
2018-08-04T00:12:30.507Z,49.79
2018-08-04T00:14:58.538Z,50.41
2018-08-04T00:17:26.404Z,50.29
2018-08-04T00:19:54.395Z,50.59
2018-08-04T00:22:22.234Z,50.49
2018-08-04T00:24:50.251Z,50.82
2018-08-04T00:27:18.080Z,50.26
2018-08-04T00:29:45.902Z,50.70
2018-08-04T00:32:13.882Z,50.36
2018-08-04T00:34:41.726Z,50.77
2018-08-04T00:37:09.494Z,50.52
2018-08-04T00:39:37.180Z,50.77
2018-08-04T00:42:05.085Z,50.73
2018-08-04T00:44:33.109Z,50.92
2018-08-04T00:47:00.934Z,51.09
2018-08-04T00:49:28.703Z,51.44
2018-08-04T00:51:56.610Z,51.20
2018-08-04T00:54:24.448Z,51.44
2018-08-04T00:56:52.187Z,51.37
2018-08-04T00:59:20.256Z,52.01
2018-08-04T01:01:47.963Z,52.08
2018-08-04T01:04:15.679Z,51.86
2018-08-04T01:06:43.391Z,51.86
2018-08-04T01:09:11.197Z,52.22
2018-08-04T01:11:38.949Z,52.64
2018-08-04T01:14:06.941Z,52.68
2018-08-04T01:16:34.632Z,52.72
2018-08-04T01:19:02.523Z,52.54
2018-08-04T01:21:30.478Z,53.10
2018-08-04T01:23:58.282Z,52.95
2018-08-04T01:26:26.139Z,52.92
2018-08-04T01:28:54.209Z,52.99
2018-08-04T01:31:22.259Z,52.92
2018-08-04T01:33:50.256Z,53.19
2018-08-04T01:36:18.111Z,53.10
2018-08-04T01:38:46.074Z,53.81
2018-08-04T01:41:13.994Z,53.55
2018-08-04T01:43:42.021Z,53.41
2018-08-04T01:46:09.789Z,53.41
2018-08-04T01:48:37.411Z,53.97
2018-08-04T01:51:05.220Z,53.72
2018-08-04T01:53:33.205Z,54.06
2018-08-04T01:56:01.203Z,54.08
2018-08-04T01:58:28.824Z,54.15
2018-08-04T02:00:56.402Z,53.87
2018-08-04T02:03:23.951Z,54.20
2018-08-04T02:05:51.534Z,53.77
2018-08-04T02:08:19.089Z,53.71
2018-08-04T02:10:46.727Z,54.29
2018-08-04T02:13:14.321Z,53.85
2018-08-04T02:15:41.907Z,54.04
2018-08-04T02:18:09.471Z,54.20
2018-08-04T02:20:37.102Z,54.58
2018-08-04T02:23:04.667Z,53.96
2018-08-04T02:25:32.242Z,54.42
2018-08-04T02:27:59.917Z,54.32
2018-08-04T02:30:27.490Z,54.28
2018-08-04T02:32:55.094Z,54.36
2018-08-04T02:35:22.695Z,54.47
2018-08-04T02:37:50.499Z,54.54
2018-08-04T02:40:18.148Z,54.59
2018-08-04T02:42:45.723Z,54.53
2018-08-04T02:45:13.375Z,54.98
2018-08-04T02:47:41.033Z,55.00
2018-08-04T02:50:08.928Z,54.65
2018-08-04T02:52:36.476Z,54.98
2018-08-04T02:55:04.141Z,55.26
2018-08-04T02:57:31.744Z,55.09
2018-08-04T02:59:59.327Z,54.94
2018-08-04T03:02:26.891Z,54.97
2018-08-04T03:04:54.459Z,54.89
2018-08-04T03:07:22.135Z,55.07
2018-08-04T03:09:49.867Z,55.15
2018-08-04T03:12:17.439Z,55.11
2018-08-04T03:14:44.971Z,55.49
2018-08-04T03:17:12.511Z,55.31
2018-08-04T03:19:40.131Z,54.99
2018-08-04T03:22:07.713Z,55.08
2018-08-04T03:24:35.343Z,55.36
2018-08-04T03:27:02.989Z,55.29
2018-08-04T03:29:30.563Z,55.68
2018-08-04T03:31:58.102Z,55.21
2018-08-04T03:34:25.794Z,55.39
2018-08-04T03:36:53.438Z,55.67
2018-08-04T03:39:20.971Z,56.14
2018-08-04T03:41:48.543Z,55.65
2018-08-04T03:44:16.122Z,55.82
2018-08-04T03:46:43.642Z,55.44
2018-08-04T03:49:11.223Z,55.54
2018-08-04T03:51:38.771Z,55.99
2018-08-04T03:54:06.331Z,55.51
2018-08-04T03:56:33.960Z,55.72
2018-08-04T03:59:01.527Z,55.90
2018-08-04T04:01:29.066Z,55.42
2018-08-04T04:03:56.783Z,55.80
2018-08-04T04:06:24.361Z,55.67
2018-08-04T04:08:51.910Z,55.88
2018-08-04T04:11:19.511Z,55.80
2018-08-04T04:13:47.042Z,56.17
2018-08-04T04:16:14.603Z,56.00
2018-08-04T04:18:42.258Z,55.40
2018-08-04T04:21:09.859Z,55.36
2018-08-04T04:23:37.434Z,55.41
2018-08-04T04:26:05.051Z,55.54
2018-08-04T04:28:32.679Z,55.18
2018-08-04T04:31:00.234Z,55.20
2018-08-04T04:33:27.815Z,55.45
2018-08-04T04:35:55.379Z,55.59
2018-08-04T04:38:22.939Z,55.39
2018-08-04T04:40:50.514Z,55.39
2018-08-04T04:43:18.083Z,55.39
2018-08-04T04:45:45.711Z,55.33
2018-08-04T04:48:13.331Z,55.10
2018-08-04T04:50:40.904Z,55.16
2018-08-04T04:53:08.479Z,55.23
2018-08-04T04:55:36.148Z,54.92
2018-08-04T04:58:03.811Z,54.76
2018-08-04T05:00:31.366Z,55.00
2018-08-04T05:02:58.997Z,54.77
2018-08-04T05:05:26.575Z,54.30
2018-08-04T05:07:54.222Z,54.35
2018-08-04T05:10:21.844Z,53.35
2018-08-04T05:12:49.426Z,53.37
2018-08-04T05:15:16.991Z,52.83
2018-08-04T05:17:44.579Z,52.46
2018-08-04T05:20:12.169Z,52.75
2018-08-04T05:22:39.735Z,52.59
2018-08-04T05:25:07.519Z,52.85
2018-08-04T05:27:35.083Z,52.23
2018-08-04T05:30:02.772Z,52.39
2018-08-04T05:32:30.390Z,52.04
2018-08-04T05:34:57.943Z,51.75
2018-08-04T05:37:25.509Z,51.18
2018-08-04T05:39:53.131Z,51.08
2018-08-04T05:42:20.799Z,50.84
2018-08-04T05:44:48.335Z,50.73
2018-08-04T05:47:16.144Z,50.28
2018-08-04T05:49:43.779Z,49.30
2018-08-04T05:52:11.383Z,49.12
2018-08-04T05:54:39.011Z,48.72
2018-08-04T05:57:06.801Z,49.98
2018-08-04T05:59:34.367Z,49.88
2018-08-04T06:02:02.043Z,49.36
2018-08-04T06:04:29.607Z,48.62
2018-08-04T06:06:57.162Z,48.31
2018-08-04T06:09:24.742Z,48.29
2018-08-04T06:11:52.654Z,48.23
2018-08-04T06:14:20.254Z,46.88
2018-08-04T06:16:48.066Z,46.15
2018-08-04T06:19:15.660Z,46.32
2018-08-04T06:21:43.211Z,46.79
2018-08-04T06:24:10.833Z,46.72
2018-08-04T06:26:38.446Z,46.53
2018-08-04T06:29:06.063Z,45.05
2018-08-04T06:31:33.657Z,44.36
2018-08-04T06:34:01.292Z,43.44
2018-08-04T06:36:28.851Z,43.80
2018-08-04T06:38:56.459Z,43.76
2018-08-04T06:41:24.106Z,43.43
2018-08-04T06:43:52.060Z,43.79
2018-08-04T06:46:19.744Z,43.76
2018-08-04T06:48:47.274Z,42.53
2018-08-04T06:51:14.839Z,42.97
2018-08-04T06:53:42.543Z,43.38
2018-08-04T06:56:10.160Z,42.96
2018-08-04T06:58:37.723Z,43.09
2018-08-04T07:01:05.451Z,42.13
2018-08-04T07:03:33.094Z,41.52
2018-08-04T07:06:00.643Z,41.13
2018-08-04T07:08:28.222Z,40.48
2018-08-04T07:10:56.334Z,39.44
2018-08-04T07:13:23.914Z,38.20
2018-08-04T07:15:51.619Z,37.86
2018-08-04T07:18:19.190Z,38.65
2018-08-04T07:20:46.756Z,37.36
2018-08-04T07:23:14.395Z,37.31
2018-08-04T07:25:42.091Z,37.07
2018-08-04T07:28:09.650Z,36.65
2018-08-04T07:30:37.266Z,35.66
2018-08-04T07:33:05.019Z,36.35
2018-08-04T07:35:32.590Z,34.75
2018-08-04T07:38:00.195Z,33.86
2018-08-04T07:40:27.825Z,34.23
2018-08-04T07:42:55.360Z,34.91
2018-08-04T07:45:22.963Z,35.00
2018-08-04T07:47:50.524Z,35.18
2018-08-04T07:50:18.139Z,35.19
2018-08-04T07:52:45.751Z,36.04
2018-08-04T07:55:13.344Z,35.96
2018-08-04T07:57:40.962Z,36.76
2018-08-04T08:00:09.034Z,36.70
2018-08-04T08:02:36.607Z,36.48
2018-08-04T08:05:04.364Z,36.28
2018-08-04T08:07:31.927Z,35.72
2018-08-04T08:09:59.499Z,35.95
2018-08-04T08:12:27.074Z,35.32
2018-08-04T08:14:54.679Z,34.43
2018-08-04T08:17:22.271Z,33.42
2018-08-04T08:19:49.910Z,33.04
2018-08-04T08:22:17.522Z,32.79
2018-08-04T08:24:45.097Z,33.06
2018-08-04T08:27:12.743Z,32.78
2018-08-04T08:29:40.403Z,32.66
2018-08-04T08:32:08.028Z,31.90
2018-08-04T08:34:35.823Z,30.45
2018-08-04T08:37:03.439Z,30.07
2018-08-04T08:39:31.003Z,29.95
2018-08-04T08:41:58.607Z,29.04
2018-08-04T08:44:26.287Z,29.60
2018-08-04T08:46:53.869Z,28.92
2018-08-04T08:49:21.412Z,27.60
2018-08-04T08:51:48.999Z,29.08
2018-08-04T08:54:16.564Z,29.22
2018-08-04T08:56:44.119Z,28.75
2018-08-04T08:59:11.724Z,28.78
2018-08-04T09:01:39.288Z,29.41
2018-08-04T09:04:07.306Z,29.88
2018-08-04T09:06:34.943Z,30.62
2018-08-04T09:09:02.676Z,31.07
2018-08-04T09:11:30.255Z,31.11
2018-08-04T09:13:57.866Z,32.09
2018-08-04T09:16:25.422Z,31.77
2018-08-04T09:18:52.975Z,30.65
2018-08-04T09:21:20.591Z,31.20
2018-08-04T09:23:48.138Z,32.27
2018-08-04T09:26:15.844Z,33.07
2018-08-04T09:28:43.442Z,33.02
2018-08-04T09:31:11.172Z,33.70
2018-08-04T09:33:38.754Z,33.04
2018-08-04T09:36:06.387Z,33.47
2018-08-04T09:38:34.016Z,33.59
2018-08-04T09:41:01.839Z,32.33
2018-08-04T09:43:29.483Z,31.99
2018-08-04T09:45:57.045Z,31.35
2018-08-04T09:48:24.704Z,31.95
2018-08-04T09:50:52.418Z,32.89
2018-08-04T09:53:20.043Z,34.05
2018-08-04T09:55:47.611Z,33.04
2018-08-04T09:58:15.231Z,31.58
2018-08-04T10:00:48.311Z,31.06
2018-08-04T10:03:15.890Z,30.46
2018-08-04T10:05:43.484Z,28.90
2018-08-04T10:08:11.129Z,28.98
2018-08-04T10:10:38.767Z,28.02
2018-08-04T10:13:06.339Z,27.80
2018-08-04T10:15:33.887Z,27.74
2018-08-04T10:18:01.499Z,27.17
2018-08-04T10:20:29.065Z,27.05
2018-08-04T10:22:56.663Z,26.45
2018-08-04T10:25:24.369Z,25.30
2018-08-04T10:27:52.024Z,24.88
2018-08-04T10:30:19.827Z,25.51
2018-08-04T10:32:47.645Z,25.45
2018-08-04T10:35:15.291Z,25.05
2018-08-04T10:37:42.887Z,24.57
2018-08-04T10:40:10.671Z,23.90
2018-08-04T10:42:38.483Z,24.76
2018-08-04T10:45:06.470Z,23.78
2018-08-04T10:47:34.079Z,23.51
2018-08-04T10:50:01.632Z,23.13
2018-08-04T10:52:29.188Z,23.23
2018-08-04T10:54:56.790Z,23.14
2018-08-04T10:57:24.371Z,22.17
2018-08-04T10:59:51.910Z,22.30
2018-08-04T11:02:19.523Z,21.44
2018-08-04T11:04:47.082Z,21.70
2018-08-04T11:07:14.758Z,21.17
2018-08-04T11:09:42.391Z,21.56
2018-08-04T11:12:09.983Z,20.50
2018-08-04T11:14:37.531Z,19.83
2018-08-04T11:17:05.151Z,20.39
2018-08-04T11:19:32.771Z,20.06
2018-08-04T11:22:00.311Z,19.33
2018-08-04T11:24:27.920Z,19.74
2018-08-04T11:26:55.494Z,18.80
2018-08-04T11:29:23.087Z,19.30
2018-08-04T11:31:50.691Z,18.57
2018-08-04T11:34:18.565Z,18.74
2018-08-04T11:36:46.278Z,16.98
2018-08-04T11:39:13.985Z,17.58
2018-08-04T11:41:41.599Z,17.22
2018-08-04T11:44:09.352Z,18.61
2018-08-04T11:46:37.032Z,19.79
2018-08-04T11:49:04.947Z,20.39
2018-08-04T11:51:32.580Z,20.26
2018-08-04T11:54:00.183Z,21.40
2018-08-04T11:56:27.747Z,21.45
2018-08-04T11:58:55.284Z,22.50
2018-08-04T12:01:22.875Z,23.63
2018-08-04T12:03:50.438Z,24.29
2018-08-04T12:06:18.052Z,23.15
2018-08-04T12:08:45.667Z,21.76
2018-08-04T12:11:13.458Z,20.08
2018-08-04T12:13:41.051Z,18.65
2018-08-04T12:16:08.666Z,17.12
2018-08-04T12:18:36.235Z,16.12
2018-08-04T12:21:03.829Z,16.94
2018-08-04T12:23:31.431Z,15.93
2018-08-04T12:25:58.996Z,15.59
2018-08-04T12:28:26.571Z,14.96
2018-08-04T12:30:54.160Z,15.35
2018-08-04T12:33:21.759Z,14.77
2018-08-04T12:35:49.331Z,14.65
2018-08-04T12:38:16.919Z,14.62
2018-08-04T12:40:44.510Z,14.60
2018-08-04T12:43:12.199Z,14.39
2018-08-04T12:45:39.783Z,14.29
2018-08-04T12:48:07.334Z,17.01
2018-08-04T12:50:34.903Z,18.12
2018-08-04T12:53:02.478Z,20.32
2018-08-04T12:55:30.069Z,20.38
2018-08-04T12:57:57.748Z,21.58
2018-08-04T13:00:25.351Z,22.09
2018-08-04T13:02:52.898Z,22.22
2018-08-04T13:05:20.514Z,21.79
2018-08-04T13:07:48.098Z,21.06
2018-08-04T13:10:15.645Z,22.68
2018-08-04T13:12:43.429Z,21.25
2018-08-04T13:15:11.013Z,21.66
2018-08-04T13:17:38.638Z,22.55
2018-08-04T13:20:06.321Z,22.22
2018-08-04T13:22:33.932Z,22.25
2018-08-04T13:25:01.524Z,23.08
2018-08-04T13:27:29.063Z,23.24
2018-08-04T13:29:56.648Z,23.47
2018-08-04T13:32:24.203Z,22.28
2018-08-04T13:34:51.777Z,23.79
2018-08-04T13:37:19.449Z,22.84
2018-08-04T13:39:48.085Z,23.12
2018-08-04T13:42:15.646Z,22.32
2018-08-04T13:44:43.263Z,21.68
2018-08-04T13:47:10.815Z,20.83
2018-08-04T13:49:38.399Z,20.87
2018-08-04T13:52:06.112Z,21.79
2018-08-04T13:54:33.699Z,22.18
2018-08-04T13:57:01.272Z,21.50
2018-08-04T13:59:28.907Z,20.09
2018-08-04T14:01:56.551Z,19.16
2018-08-04T14:04:24.127Z,18.54
2018-08-04T14:06:51.701Z,17.17
2018-08-04T14:09:19.268Z,16.76
2018-08-04T14:11:46.831Z,18.11
2018-08-04T14:14:14.451Z,18.73
2018-08-04T14:16:42.136Z,19.61
2018-08-04T14:19:09.710Z,20.52
2018-08-04T14:21:37.283Z,22.75
2018-08-04T14:24:04.868Z,23.69
2018-08-04T14:26:32.415Z,24.10
2018-08-04T14:29:00.041Z,24.91
2018-08-04T14:31:27.614Z,25.00
2018-08-04T14:33:55.212Z,25.85
2018-08-04T14:36:22.823Z,26.83
2018-08-04T14:38:50.479Z,27.60
2018-08-04T14:41:18.152Z,28.49
2018-08-04T14:43:45.734Z,29.76
2018-08-04T14:46:13.287Z,29.97
2018-08-04T14:48:40.859Z,30.22
2018-08-04T14:51:08.486Z,30.50
2018-08-04T14:53:36.040Z,31.08
2018-08-04T14:56:03.642Z,31.60
2018-08-04T14:58:31.907Z,31.53
2018-08-04T15:00:59.579Z,31.80
2018-08-04T15:03:27.164Z,32.24
2018-08-04T15:05:54.804Z,32.53
2018-08-04T15:08:22.384Z,32.54
2018-08-04T15:10:49.935Z,34.25
2018-08-04T15:13:17.527Z,37.39
2018-08-04T15:15:45.207Z,37.87
2018-08-04T15:18:12.764Z,38.71
2018-08-04T15:20:40.375Z,38.36
2018-08-04T15:23:08.008Z,38.85
2018-08-04T15:25:35.587Z,39.11
2018-08-04T15:28:03.299Z,40.58
2018-08-04T15:30:30.931Z,42.33
2018-08-04T15:32:58.483Z,43.30
2018-08-04T15:35:26.094Z,41.19
2018-08-04T15:37:53.635Z,39.15
2018-08-04T15:40:21.367Z,39.00
2018-08-04T15:42:48.931Z,40.45
2018-08-04T15:45:16.477Z,42.89
2018-08-04T15:47:44.051Z,43.08
2018-08-04T15:50:11.851Z,41.00
2018-08-04T15:52:39.439Z,40.57
2018-08-04T15:55:07.287Z,41.65
2018-08-04T15:57:35.042Z,41.06
2018-08-04T16:00:02.795Z,42.63
2018-08-04T16:02:30.454Z,42.93
2018-08-04T16:04:58.019Z,43.64
2018-08-04T16:07:25.585Z,43.22
2018-08-04T16:09:53.164Z,41.52
2018-08-04T16:12:20.802Z,42.42
2018-08-04T16:14:48.394Z,42.32
2018-08-04T16:17:16.123Z,43.26
2018-08-04T16:19:43.741Z,40.91
2018-08-04T16:22:11.295Z,41.97
2018-08-04T16:24:38.847Z,42.66
2018-08-04T16:27:06.918Z,41.63
2018-08-04T16:29:34.509Z,42.57
2018-08-04T16:32:02.107Z,40.82
2018-08-04T16:34:29.745Z,42.25
2018-08-04T16:36:57.314Z,42.68
2018-08-04T16:39:24.850Z,43.00
2018-08-04T16:41:52.461Z,43.77
2018-08-04T16:44:20.032Z,45.12
2018-08-04T16:46:47.588Z,46.78
2018-08-04T16:49:15.274Z,44.25
2018-08-04T16:51:42.845Z,44.05
2018-08-04T16:54:10.418Z,43.32
2018-08-04T16:56:38.070Z,44.08
2018-08-04T16:59:05.651Z,44.11
2018-08-04T17:01:33.377Z,45.12
2018-08-04T17:04:01.007Z,44.95
2018-08-04T17:06:28.622Z,45.70
2018-08-04T17:08:56.167Z,45.54
2018-08-04T17:11:23.751Z,46.73
2018-08-04T17:13:51.296Z,47.59
2018-08-04T17:16:18.861Z,48.60
2018-08-04T17:18:46.531Z,47.99
2018-08-04T17:21:14.119Z,40.84
2018-08-04T17:23:41.768Z,38.18
2018-08-04T17:26:11.542Z,36.54
2018-08-04T17:28:41.457Z,36.60
2018-08-04T17:31:09.355Z,40.61
2018-08-04T17:33:37.110Z,36.85
2018-08-04T17:36:06.109Z,36.21
2018-08-04T17:38:35.205Z,36.68
2018-08-04T17:41:04.013Z,44.69
2018-08-04T17:43:33.869Z,50.20
2018-08-04T17:46:01.855Z,49.85
2018-08-04T17:48:29.675Z,50.07
2018-08-04T17:50:59.799Z,49.96
2018-08-04T17:53:27.699Z,50.79
2018-08-04T17:55:56.751Z,50.97
2018-08-04T17:58:26.366Z,52.69
2018-08-04T18:00:54.158Z,52.40
2018-08-04T18:03:22.243Z,52.47
2018-08-04T18:05:51.577Z,52.81
2018-08-04T18:08:19.408Z,53.11
2018-08-04T18:10:47.702Z,52.51
2018-08-04T18:13:15.469Z,52.07
2018-08-04T18:15:43.266Z,52.68
2018-08-04T18:18:11.021Z,52.39
2018-08-04T18:20:38.903Z,53.30
2018-08-04T18:23:07.070Z,52.57
2018-08-04T18:25:36.072Z,52.56
2018-08-04T18:28:04.569Z,52.75
2018-08-04T18:30:34.537Z,52.26
2018-08-04T18:33:03.811Z,52.55
2018-08-04T18:35:33.062Z,52.16
2018-08-04T18:38:00.839Z,52.80
2018-08-04T18:40:28.493Z,53.19
2018-08-04T18:42:56.381Z,53.02
2018-08-04T18:45:25.021Z,53.25
2018-08-04T18:47:52.995Z,53.72
2018-08-04T18:50:20.592Z,54.13
2018-08-04T18:52:48.211Z,54.71
2018-08-04T18:55:16.488Z,55.02
2018-08-04T18:57:47.226Z,55.51
2018-08-04T19:00:14.823Z,55.50
2018-08-04T19:02:42.434Z,54.75
2018-08-04T19:05:10.031Z,53.76
2018-08-04T19:07:37.698Z,53.50
2018-08-04T19:10:05.599Z,54.22
2018-08-04T19:12:33.192Z,53.61
2018-08-04T19:15:00.791Z,53.81
2018-08-04T19:17:28.464Z,54.24
2018-08-04T19:19:56.143Z,54.01
2018-08-04T19:22:23.821Z,54.57
2018-08-04T19:24:51.403Z,54.73
2018-08-04T19:27:19.019Z,55.02
2018-08-04T19:29:46.699Z,55.80
2018-08-04T19:32:14.311Z,55.88
2018-08-04T19:34:41.966Z,56.20
2018-08-04T19:37:09.574Z,57.12
2018-08-04T19:39:37.163Z,57.40
2018-08-04T19:42:04.875Z,57.17
2018-08-04T19:44:32.423Z,58.14
2018-08-04T19:47:00.020Z,58.64
2018-08-04T19:49:27.595Z,59.39
2018-08-04T19:51:55.152Z,58.33
2018-08-04T19:54:22.734Z,58.28
2018-08-04T19:56:50.303Z,58.56
2018-08-04T19:59:17.875Z,58.20
2018-08-04T20:01:45.528Z,58.11
2018-08-04T20:04:13.096Z,58.11
2018-08-04T20:06:40.658Z,58.53
2018-08-04T20:09:09.771Z,58.15
2018-08-04T20:11:37.515Z,58.16
2018-08-04T20:14:05.067Z,58.21
2018-08-04T20:16:32.710Z,58.01
2018-08-04T20:19:00.574Z,58.64
2018-08-04T20:21:28.704Z,58.79
2018-08-04T20:23:57.266Z,58.90
2018-08-04T20:26:25.711Z,58.72
2018-08-04T20:28:54.675Z,58.42
2018-08-04T20:31:22.314Z,57.80
2018-08-04T20:33:50.325Z,58.01
2018-08-04T20:36:17.919Z,58.00
2018-08-04T20:38:45.712Z,57.17
2018-08-04T20:41:13.260Z,57.55
2018-08-04T20:43:40.847Z,56.71
2018-08-04T20:46:08.579Z,57.04
2018-08-04T20:48:36.165Z,56.82
2018-08-04T20:51:03.761Z,57.00
2018-08-04T20:53:31.351Z,56.89
2018-08-04T20:55:59.075Z,56.69
2018-08-04T20:58:26.836Z,56.86
2018-08-04T21:01:05.447Z,56.82
2018-08-04T21:03:33.047Z,56.69
2018-08-04T21:06:00.611Z,56.96
2018-08-04T21:08:28.247Z,56.53
2018-08-04T21:10:55.843Z,56.90
2018-08-04T21:13:23.432Z,57.08
2018-08-04T21:15:51.072Z,57.56
2018-08-04T21:18:18.652Z,57.16
2018-08-04T21:20:46.308Z,57.94
2018-08-04T21:23:13.975Z,58.31
2018-08-04T21:25:41.572Z,57.87
2018-08-04T21:28:09.223Z,57.67
2018-08-04T21:30:36.818Z,58.18
2018-08-04T21:33:04.421Z,57.43
2018-08-04T21:35:32.015Z,57.44
2018-08-04T21:37:59.630Z,56.94
2018-08-04T21:40:28.016Z,56.59
2018-08-04T21:42:55.785Z,57.35
2018-08-04T21:45:23.902Z,57.37
2018-08-04T21:47:51.754Z,57.27
2018-08-04T21:50:19.523Z,57.60
2018-08-04T21:52:47.339Z,57.11
2018-08-04T21:55:16.300Z,57.00
2018-08-04T21:57:44.015Z,57.33
2018-08-04T22:00:13.040Z,57.61
2018-08-04T22:02:52.752Z,58.44
2018-08-04T22:05:20.572Z,58.14
2018-08-04T22:08:59.028Z,57.81
2018-08-04T22:11:26.902Z,58.35
2018-08-04T22:13:54.575Z,58.32
2018-08-04T22:16:22.307Z,58.57
2018-08-04T22:18:49.931Z,57.75
2018-08-04T22:21:17.748Z,57.80
2018-08-04T22:23:45.357Z,57.49
2018-08-04T22:26:13.012Z,58.27
2018-08-04T22:28:40.652Z,57.98
2018-08-04T22:31:08.271Z,58.86
2018-08-04T22:33:36.036Z,58.08
2018-08-04T22:36:03.867Z,55.52
2018-08-04T22:38:31.659Z,52.36
2018-08-04T22:40:59.539Z,51.16
2018-08-04T22:43:27.260Z,50.28
2018-08-04T22:45:59.127Z,48.88
2018-08-04T22:48:27.062Z,48.60
2018-08-04T22:50:54.964Z,49.48
2018-08-04T22:53:22.762Z,52.16
2018-08-04T22:55:50.530Z,54.36
2018-08-04T22:58:18.279Z,55.28
2018-08-04T23:00:46.078Z,56.38
2018-08-04T23:03:14.129Z,57.27
2018-08-04T23:05:41.839Z,57.87
2018-08-04T23:08:10.516Z,58.12
2018-08-04T23:10:38.663Z,59.49
2018-08-04T23:13:06.731Z,59.58
2018-08-04T23:15:34.606Z,59.63
2018-08-04T23:18:02.437Z,60.42
2018-08-04T23:20:30.253Z,60.25
2018-08-04T23:22:58.615Z,60.58
2018-08-04T23:25:26.156Z,60.15
2018-08-04T23:27:53.922Z,60.59
2018-08-04T23:30:21.978Z,61.24
2018-08-04T23:32:50.430Z,61.64
2018-08-04T23:35:17.991Z,61.79
2018-08-04T23:37:45.870Z,61.93
2018-08-04T23:40:13.446Z,61.84
2018-08-04T23:42:41.124Z,61.79
2018-08-04T23:45:09.106Z,61.40
2018-08-04T23:47:36.668Z,61.95
2018-08-04T23:50:04.731Z,62.29
2018-08-04T23:52:32.368Z,62.15
2018-08-04T23:54:59.958Z,61.39
2018-08-04T23:57:27.953Z,62.06
2018-08-04T23:59:55.625Z,61.69
